Time;durP1;ratioP1;P1;durP2;ratioP2;P2;SDS_P1;SDS_P2;PMS_P1;PMS_P2;Temp;Humidity;BMP_temperature;BMP_pressure;BME280_temperature;BME280_humidity;BME280_pressure;Samples;Min_cycle;Max_cycle;Signal;HPM_P1;HPM_P2
2023/05/14 00:00:57;;;;;;;1999.90;999.90;;;;;;;11.79;100.00;94313.19;5105764;28;20178;-60
2023/05/14 00:03:23;;;;;;;1999.90;999.90;;;;;;;11.66;100.00;94317.91;5105860;28;20181;-61
2023/05/14 00:05:48;;;;;;;1999.90;999.90;;;;;;;11.62;100.00;94325.44;5105107;28;20172;-61
2023/05/14 00:08:13;;;;;;;1999.90;999.90;;;;;;;11.68;100.00;94345.56;5105722;28;20169;-62
2023/05/14 00:10:39;;;;;;;1999.90;999.90;;;;;;;11.62;100.00;94347.31;5105541;28;20161;-61
2023/05/14 00:13:04;;;;;;;1999.90;999.90;;;;;;;11.71;100.00;94350.94;5105556;28;20224;-61
2023/05/14 00:15:29;;;;;;;1999.90;999.90;;;;;;;11.70;100.00;94370.50;5105574;28;20217;-60
2023/05/14 00:17:55;;;;;;;1999.90;999.90;;;;;;;11.61;100.00;94384.03;5105607;28;20171;-61
2023/05/14 00:20:20;;;;;;;1999.90;999.90;;;;;;;11.60;100.00;94377.03;5105206;28;20216;-60
2023/05/14 00:22:45;;;;;;;1999.90;999.90;;;;;;;11.60;100.00;94382.50;5105934;28;20175;-60
2023/05/14 00:25:11;;;;;;;1999.90;999.90;;;;;;;11.54;100.00;94379.53;5105351;28;20176;-60
2023/05/14 00:27:36;;;;;;;1999.90;999.90;;;;;;;11.61;100.00;94378.56;5105419;28;20173;-61
2023/05/14 00:30:04;;;;;;;1999.90;999.90;;;;;;;11.59;100.00;94370.03;5106043;28;20206;-61
2023/05/14 00:32:29;;;;;;;1999.90;999.90;;;;;;;11.59;100.00;94383.69;5105298;28;20202;-60
2023/05/14 00:34:55;;;;;;;1999.90;999.90;;;;;;;11.56;100.00;94381.81;5105123;28;20171;-61
2023/05/14 00:37:20;;;;;;;1999.90;999.90;;;;;;;11.56;100.00;94387.28;5105149;28;20175;-60
2023/05/14 00:39:45;;;;;;;1999.90;999.90;;;;;;;11.55;100.00;94380.31;5105114;28;20168;-61
2023/05/14 00:42:11;;;;;;;1999.90;999.90;;;;;;;11.44;100.00;94385.31;5105116;28;20345;-60
2023/05/14 00:44:36;;;;;;;1999.90;999.90;;;;;;;11.46;100.00;94385.63;5104577;28;20202;-61
2023/05/14 00:47:02;;;;;;;1999.90;999.90;;;;;;;11.49;100.00;94390.22;5104999;28;20179;-60
2023/05/14 00:49:28;;;;;;;1999.90;999.90;;;;;;;11.44;100.00;94385.31;5104921;28;20186;-61
2023/05/14 00:51:53;;;;;;;1999.90;999.90;;;;;;;11.45;100.00;94382.13;5105341;28;20228;-61
2023/05/14 00:54:19;;;;;;;1999.90;999.90;;;;;;;11.40;100.00;94381.91;5105071;28;20187;-61
2023/05/14 00:56:45;;;;;;;1999.90;999.90;;;;;;;11.34;100.00;94381.66;5104820;28;20172;-61
2023/05/14 00:59:12;;;;;;;1999.90;999.90;;;;;;;11.43;100.00;94384.53;5104903;28;20244;-61
2023/05/14 01:01:38;;;;;;;1999.90;999.90;;;;;;;11.44;100.00;94382.56;5104528;28;20176;-61
2023/05/14 01:04:04;;;;;;;1999.90;999.90;;;;;;;11.40;100.00;94398.31;5104611;28;20170;-61
2023/05/14 01:07:01;;;;;;;1999.90;999.90;;;;;;;11.35;100.00;94396.84;5104683;28;20191;-61
2023/05/14 01:09:40;;;;;;;1999.90;999.90;;;;;;;11.30;100.00;94402.09;5104987;28;20209;-61
2023/05/14 01:12:21;;;;;;;1999.90;999.90;;;;;;;11.26;100.00;94406.88;5104495;28;20247;-61
2023/05/14 01:14:49;;;;;;;1999.90;999.90;;;;;;;11.24;100.00;94401.06;5105075;28;20168;-61
2023/05/14 01:17:18;;;;;;;1999.90;999.90;;;;;;;11.20;100.00;94403.91;5104125;28;20200;-62
2023/05/14 01:19:46;;;;;;;1999.90;999.90;;;;;;;11.15;100.00;94400.94;5104215;28;20175;-61
2023/05/14 01:22:11;;;;;;;1999.90;999.90;;;;;;;11.15;100.00;94388.03;5104803;28;20172;-61
2023/05/14 01:24:37;;;;;;;1999.90;999.90;;;;;;;11.18;100.00;94383.69;5104026;28;20175;-61
2023/05/14 01:27:06;;;;;;;1999.90;999.90;;;;;;;11.10;100.00;94372.16;5104328;28;20169;-61
2023/05/14 01:29:34;;;;;;;1999.90;999.90;;;;;;;11.12;100.00;94369.00;5104797;28;20168;-61
2023/05/14 01:32:00;;;;;;;1999.90;999.90;;;;;;;11.11;100.00;94364.75;5104304;28;20179;-61
2023/05/14 01:34:27;;;;;;;1999.90;999.90;;;;;;;11.04;100.00;94373.13;5104155;28;20450;-61
2023/05/14 01:36:54;;;;;;;1999.90;999.90;;;;;;;11.12;100.00;94363.53;5104368;28;20172;-61
2023/05/14 01:39:22;;;;;;;1999.90;999.90;;;;;;;11.02;100.00;94359.13;5103987;28;20171;-61
2023/05/14 01:41:47;;;;;;;1999.90;999.90;;;;;;;11.08;100.00;94346.47;5104072;28;20196;-61
2023/05/14 01:44:13;;;;;;;1999.90;999.90;;;;;;;11.05;100.00;94350.06;5104056;28;20203;-61
2023/05/14 01:46:39;;;;;;;1999.90;999.90;;;;;;;11.11;100.00;94340.16;5104552;28;20171;-61
2023/05/14 01:49:04;;;;;;;1999.90;999.90;;;;;;;11.08;100.00;94335.53;5103866;28;20171;-61
2023/05/14 01:51:29;;;;;;;1999.90;999.90;;;;;;;11.12;100.00;94336.22;5103842;28;20184;-61
2023/05/14 01:53:55;;;;;;;1999.90;999.90;;;;;;;11.12;100.00;94330.75;5103795;28;20205;-62
2023/05/14 01:56:22;;;;;;;1999.90;999.90;;;;;;;11.10;100.00;94338.59;5103942;28;20249;-61
2023/05/14 01:58:48;;;;;;;1999.90;999.90;;;;;;;11.15;100.00;94349.03;5103775;28;20464;-60
2023/05/14 02:01:13;;;;;;;1999.90;999.90;;;;;;;11.08;100.00;94346.47;5103935;28;20243;-60
2023/05/14 02:03:38;;;;;;;1999.90;999.90;;;;;;;10.93;100.00;94361.72;5104166;28;20164;-61
2023/05/14 02:06:04;;;;;;;1999.90;999.90;;;;;;;10.92;100.00;94366.41;5104340;28;20175;-61
2023/05/14 02:08:29;;;;;;;1999.90;999.90;;;;;;;10.83;100.00;94360.03;5103819;28;20167;-60
2023/05/14 02:10:55;;;;;;;1999.90;999.90;;;;;;;10.86;100.00;94351.75;5103577;28;20177;-60
2023/05/14 02:13:20;;;;;;;1999.90;999.90;;;;;;;10.86;100.00;94345.50;5103795;28;20198;-61
2023/05/14 02:15:46;;;;;;;1999.90;999.90;;;;;;;10.89;100.00;94344.66;5104052;28;20171;-60
2023/05/14 02:18:11;;;;;;;1999.90;999.90;;;;;;;10.87;100.00;94364.19;5103780;28;20212;-60
2023/05/14 02:20:36;;;;;;;1999.90;999.90;;;;;;;10.82;100.00;94361.22;5103883;28;20237;-61
2023/05/14 02:23:02;;;;;;;1999.90;999.90;;;;;;;10.79;100.00;94367.53;5103914;28;20180;-60
2023/05/14 02:25:27;;;;;;;1999.90;999.90;;;;;;;10.80;100.00;94352.69;5104143;28;20170;-60
2023/05/14 02:27:52;;;;;;;1999.90;999.90;;;;;;;10.89;100.00;94355.59;5104929;28;20175;-60
2023/05/14 02:30:18;;;;;;;1999.90;999.90;;;;;;;10.93;100.00;94361.72;5107981;28;20176;-60
2023/05/14 02:32:43;;;;;;;1999.90;999.90;;;;;;;10.79;100.00;94367.53;5107443;28;20435;-60
2023/05/14 02:35:08;;;;;;;1999.90;999.90;;;;;;;10.68;100.00;94367.81;5107659;28;20181;-60
2023/05/14 02:37:34;;;;;;;1999.90;999.90;;;;;;;10.62;100.00;94344.19;5107566;28;20166;-60
2023/05/14 02:39:59;;;;;;;1999.90;999.90;;;;;;;10.54;100.00;94331.91;5107498;28;20200;-61
2023/05/14 02:42:25;;;;;;;1999.90;999.90;;;;;;;10.59;100.00;94304.09;5107993;28;20189;-60
2023/05/14 02:44:51;;;;;;;1999.90;999.90;;;;;;;10.58;100.00;94286.94;5107376;28;20354;-61
2023/05/14 02:47:17;;;;;;;1999.90;999.90;;;;;;;10.68;100.00;94274.22;5107836;28;20175;-61
2023/05/14 02:49:42;;;;;;;1999.90;999.90;;;;;;;10.72;100.00;94263.97;5107764;28;20177;-61
2023/05/14 02:52:08;;;;;;;1999.90;999.90;;;;;;;10.75;100.00;94252.19;5107265;28;20170;-60
2023/05/14 02:54:33;;;;;;;1999.90;999.90;;;;;;;10.72;100.00;94259.28;5107722;28;20178;-60
2023/05/14 02:56:59;;;;;;;1999.90;999.90;;;;;;;10.66;100.00;94252.81;5107097;28;20182;-61
2023/05/14 02:59:24;;;;;;;1999.90;999.90;;;;;;;10.53;100.00;94240.31;5107167;28;20243;-61
2023/05/14 03:01:49;;;;;;;1999.90;999.90;;;;;;;10.49;100.00;94215.81;5107542;28;20173;-61
2023/05/14 03:04:15;;;;;;;1999.90;999.90;;;;;;;10.48;100.00;94192.47;5107113;28;20185;-61
2023/05/14 03:06:40;;;;;;;1999.90;999.90;;;;;;;10.51;100.00;94185.38;5106623;28;20247;-61
2023/05/14 03:09:06;;;;;;;1999.90;999.90;;;;;;;10.46;100.00;94164.06;5106892;28;20208;-61
2023/05/14 03:11:32;;;;;;;1999.90;999.90;;;;;;;10.42;100.00;94152.50;5106824;28;20221;-61
2023/05/14 03:13:57;;;;;;;1999.90;999.90;;;;;;;10.41;100.00;94140.06;5106757;28;20202;-61
2023/05/14 03:16:22;;;;;;;1999.90;999.90;;;;;;;10.43;100.00;94126.72;5107052;28;20175;-61
2023/05/14 03:18:48;;;;;;;1999.90;999.90;;;;;;;10.40;100.00;94116.66;5106971;28;20459;-61
2023/05/14 03:21:13;;;;;;;1999.90;999.90;;;;;;;10.46;100.00;94114.94;5107035;28;20218;-61
2023/05/14 03:23:38;;;;;;;1999.90;999.90;;;;;;;10.46;100.00;94107.53;5106924;28;20203;-61
2023/05/14 03:26:04;;;;;;;1999.90;999.90;;;;;;;10.46;100.00;94101.31;5107126;28;20169;-61
2023/05/14 03:28:29;;;;;;;1999.90;999.90;;;;;;;10.50;100.00;94110.94;5106514;28;20249;-61
2023/05/14 03:30:55;;;;;;;1999.90;999.90;;;;;;;10.42;100.00;94100.66;5106548;28;20180;-61
2023/05/14 03:33:21;;;;;;;1999.90;999.90;;;;;;;10.55;100.00;94101.41;5106360;28;20423;-61
2023/05/14 03:35:47;;;;;;;1999.90;999.90;;;;;;;10.45;100.00;94102.50;5106832;28;20192;-61
2023/05/14 03:38:12;;;;;;;1999.90;999.90;;;;;;;10.49;100.00;94087.53;5106248;28;20176;-61
2023/05/14 03:40:37;;;;;;;1999.90;999.90;;;;;;;10.51;100.00;94095.28;5105136;28;20178;-62
2023/05/14 03:43:03;;;;;;;1999.90;999.90;;;;;;;10.48;100.00;94009.59;5106611;28;20178;-61
2023/05/14 03:45:29;;;;;;;1999.90;999.90;;;;;;;10.59;100.00;93999.13;5106121;28;20192;-61
2023/05/14 03:47:54;;;;;;;1999.90;999.90;;;;;;;10.61;100.00;94001.41;5106628;28;20175;-61
2023/05/14 03:50:20;;;;;;;1999.90;999.90;;;;;;;10.61;100.00;93996.72;5106211;28;20200;-61
2023/05/14 03:52:45;;;;;;;1999.90;999.90;;;;;;;10.56;100.00;93993.78;5106021;28;20198;-62
2023/05/14 03:55:11;;;;;;;1999.90;999.90;;;;;;;10.44;100.00;93995.31;5105981;28;20174;-61
2023/05/14 03:57:36;;;;;;;1999.90;999.90;;;;;;;10.51;100.00;93994.31;5105904;28;20176;-61
2023/05/14 04:00:03;;;;;;;1999.90;999.90;;;;;;;10.54;100.00;93990.72;5105881;28;20172;-61
2023/05/14 04:02:28;;;;;;;1999.90;999.90;;;;;;;10.54;100.00;93990.72;5105801;28;20203;-61
2023/05/14 04:04:53;;;;;;;1999.90;999.90;;;;;;;10.51;100.00;93991.59;5105826;28;20176;-61
2023/05/14 04:07:19;;;;;;;1999.90;999.90;;;;;;;10.47;100.00;93996.38;5106208;28;20179;-61
2023/05/14 04:09:44;;;;;;;1999.90;999.90;;;;;;;10.47;100.00;93985.47;5105706;28;20186;-61
2023/05/14 04:12:09;;;;;;;1999.90;999.90;;;;;;;10.46;100.00;93986.69;5105563;28;20172;-61
2023/05/14 04:14:35;;;;;;;1999.90;999.90;;;;;;;10.45;100.00;93987.88;5105652;28;20205;-61
2023/05/14 04:17:00;;;;;;;1999.90;999.90;;;;;;;10.50;100.00;93990.06;5105968;28;20169;-61
2023/05/14 04:19:25;;;;;;;1999.90;999.90;;;;;;;10.58;100.00;93977.72;5105478;28;20178;-61
2023/05/14 04:21:51;;;;;;;1999.90;999.90;;;;;;;10.69;100.00;93980.88;5105775;28;20219;-61
2023/05/14 04:24:16;;;;;;;1999.90;999.90;;;;;;;10.60;100.00;93989.72;5105928;28;20200;-61
2023/05/14 04:26:42;;;;;;;1999.90;999.90;;;;;;;10.53;100.00;93998.16;5105510;28;20171;-61
2023/05/14 04:29:07;;;;;;;1999.90;999.90;;;;;;;10.53;100.00;94000.13;5105777;28;20179;-61
2023/05/14 04:31:32;;;;;;;1999.90;999.90;;;;;;;10.58;100.00;94002.28;5105842;28;20323;-61
2023/05/14 04:33:58;;;;;;;1999.90;999.90;;;;;;;10.40;100.00;94012.97;5105723;28;20208;-63
2023/05/14 04:36:23;;;;;;;1999.90;999.90;;;;;;;10.45;100.00;94009.72;5105450;28;20191;-61
2023/05/14 04:38:49;;;;;;;1999.90;999.90;;;;;;;10.49;100.00;94004.91;5105118;28;20167;-61
2023/05/14 04:41:14;;;;;;;1999.90;999.90;;;;;;;10.44;100.00;94008.16;5105094;28;20205;-60
2023/05/14 04:43:40;;;;;;;1999.90;999.90;;;;;;;10.23;100.00;94006.09;5105174;28;20165;-61
2023/05/14 04:46:05;;;;;;;1999.90;999.90;;;;;;;10.38;100.00;93988.09;5104966;28;20191;-61
2023/05/14 04:48:31;;;;;;;1999.90;999.90;;;;;;;10.36;100.00;93985.81;5105090;28;20170;-61
2023/05/14 04:50:56;;;;;;;1999.90;999.90;;;;;;;10.53;100.00;93978.28;5104636;28;20175;-61
2023/05/14 04:53:21;;;;;;;1999.90;999.90;;;;;;;10.47;100.00;93969.09;5104887;28;20284;-61
2023/05/14 04:55:47;;;;;;;1999.90;999.90;;;;;;;10.49;100.00;93977.63;5104779;28;20170;-62
2023/05/14 04:58:12;;;;;;;1999.90;999.90;;;;;;;10.55;100.00;93965.72;5105314;28;20168;-61
2023/05/14 05:00:39;;;;;;;1999.90;999.90;;;;;;;10.51;100.00;93972.47;5104787;28;20202;-61
2023/05/14 05:03:04;;;;;;;1999.90;999.90;;;;;;;10.58;100.00;93969.53;5104798;28;20197;-61
2023/05/14 05:05:29;;;;;;;1999.90;999.90;;;;;;;10.55;100.00;93978.59;5104909;28;20179;-61
2023/05/14 05:07:55;;;;;;;1999.90;999.90;;;;;;;10.56;100.00;93983.63;5104749;28;20252;-61
2023/05/14 05:10:20;;;;;;;1999.90;999.90;;;;;;;10.48;100.00;93993.22;5104709;28;20167;-61
2023/05/14 05:12:46;;;;;;;1999.90;999.90;;;;;;;10.44;100.00;93984.38;5105050;28;20200;-63
2023/05/14 05:15:11;;;;;;;1999.90;999.90;;;;;;;10.40;100.00;93991.91;5104489;28;20174;-61
2023/05/14 05:17:36;;;;;;;1999.90;999.90;;;;;;;10.38;100.00;93988.09;5104905;28;20166;-61
2023/05/14 05:20:04;;;;;;;1999.90;999.90;;;;;;;10.42;100.00;93986.03;5104757;28;20238;-61
2023/05/14 05:22:29;;;;;;;1999.90;999.90;;;;;;;10.41;100.00;93979.06;5104990;28;20171;-61
2023/05/14 05:24:55;;;;;;;1999.90;999.90;;;;;;;10.49;100.00;93967.44;5104074;28;20238;-61
2023/05/14 05:27:20;;;;;;;1999.90;999.90;;;;;;;10.35;100.00;93978.81;5104594;28;20174;-61
2023/05/14 05:29:46;;;;;;;1999.90;999.90;;;;;;;10.41;100.00;93979.06;5104671;28;20211;-62
2023/05/14 05:32:11;;;;;;;1999.90;999.90;;;;;;;10.39;100.00;93978.72;5104425;28;20166;-61
2023/05/14 05:34:37;;;;;;;1999.90;999.90;;;;;;;10.44;100.00;93964.50;5104300;28;20246;-61
2023/05/14 05:37:04;;;;;;;1999.90;999.90;;;;;;;10.55;100.00;93967.66;5104190;28;20229;-61
2023/05/14 05:39:33;;;;;;;1999.90;999.90;;;;;;;10.65;100.00;93964.63;5104901;28;20174;-62
2023/05/14 05:41:59;;;;;;;1999.90;999.90;;;;;;;10.65;100.00;93966.56;5104885;28;20197;-61
2023/05/14 05:44:24;;;;;;;1999.90;999.90;;;;;;;10.65;100.00;93975.53;5104447;28;20202;-64
2023/05/14 05:46:50;;;;;;;1999.90;999.90;;;;;;;10.56;100.00;93977.41;5104555;28;20165;-63
2023/05/14 05:49:15;;;;;;;1999.90;999.90;;;;;;;10.58;100.00;93997.59;5104049;28;20238;-61
2023/05/14 05:51:40;;;;;;;1999.90;999.90;;;;;;;10.60;100.00;93988.97;5104072;28;20166;-62
2023/05/14 05:54:06;;;;;;;1999.90;999.90;;;;;;;10.76;100.00;93992.34;5104355;28;20191;-63
2023/05/14 05:56:31;;;;;;;1999.90;999.90;;;;;;;10.85;100.00;93999.88;5104381;28;20169;-62
2023/05/14 05:58:56;;;;;;;1999.90;999.90;;;;;;;10.85;100.00;93988.97;5103780;28;20171;-62
2023/05/14 06:01:22;;;;;;;1999.90;999.90;;;;;;;10.70;100.00;94020.66;5104002;28;20189;-63
2023/05/14 06:03:47;;;;;;;1999.90;999.90;;;;;;;10.72;100.00;94029.16;5106328;28;20171;-62
2023/05/14 06:06:12;;;;;;;1999.90;999.90;;;;;;;10.70;100.00;94031.56;5108350;28;20182;-63
2023/05/14 06:08:38;;;;;;;1999.90;999.90;;;;;;;10.72;100.00;94037.34;5108666;28;20171;-62
2023/05/14 06:11:03;;;;;;;1999.90;999.90;;;;;;;10.68;100.00;94037.47;5108095;28;20217;-60
2023/05/14 06:13:28;;;;;;;1999.90;999.90;;;;;;;10.84;100.00;94036.56;5107914;28;20199;-61
2023/05/14 06:15:54;;;;;;;1999.90;999.90;;;;;;;10.73;100.00;94068.91;5108248;28;20179;-62
2023/05/14 06:18:19;;;;;;;1999.90;999.90;;;;;;;10.79;100.00;94061.69;5107851;28;20172;-60
2023/05/14 06:20:44;;;;;;;1999.90;999.90;;;;;;;10.95;100.00;94064.31;5107889;28;20210;-61
2023/05/14 06:23:11;;;;;;;1999.90;999.90;;;;;;;11.09;100.00;94074.81;5108268;28;20169;-62
2023/05/14 06:25:36;;;;;;;1999.90;999.90;;;;;;;11.14;100.00;94101.59;5107871;28;20255;-63
2023/05/14 06:28:01;;;;;;;1999.90;999.90;;;;;;;11.04;100.00;94128.00;5107901;28;20168;-60
2023/05/14 06:30:27;;;;;;;1999.90;999.90;;;;;;;11.09;100.00;94151.28;5108279;28;20321;-59
2023/05/14 06:32:52;;;;;;;1999.90;999.90;;;;;;;11.21;100.00;94172.38;5107521;28;20241;-61
2023/05/14 06:35:18;;;;;;;1999.90;999.90;;;;;;;11.12;100.00;94205.06;5107591;28;20175;-60
2023/05/14 06:37:44;;;;;;;1999.90;999.90;;;;;;;11.09;100.00;94233.25;5107613;28;20168;-60
2023/05/14 06:40:10;;;;;;;1999.90;999.90;;;;;;;11.06;100.00;94255.97;5107990;28;20506;-60
2023/05/14 06:42:35;;;;;;;1999.90;999.90;;;;;;;11.05;100.00;94265.38;5107461;28;20242;-60
2023/05/14 06:45:00;;;;;;;1999.90;999.90;;;;;;;11.19;100.00;94281.38;5107390;28;20198;-61
2023/05/14 06:47:26;;;;;;;1999.90;999.90;;;;;;;11.00;100.00;94306.91;5107468;28;20175;-60
2023/05/14 06:49:51;;;;;;;1999.90;999.90;;;;;;;10.93;100.00;94315.28;5107779;28;20171;-61
2023/05/14 06:52:16;;;;;;;1999.90;999.90;;;;;;;11.07;100.00;94328.56;5107282;28;20173;-61
2023/05/14 06:54:42;;;;;;;1999.90;999.90;;;;;;;11.10;100.00;94327.66;5107526;28;20176;-60
2023/05/14 06:57:07;;;;;;;1999.90;999.90;;;;;;;11.20;100.00;94348.47;5107159;28;20229;-60
2023/05/14 06:59:32;;;;;;;1999.90;999.90;;;;;;;11.22;100.00;94359.75;5107657;28;20187;-68
2023/05/14 07:01:58;;;;;;;1999.90;999.90;;;;;;;11.16;100.00;94383.34;5107446;28;20391;-60
2023/05/14 07:04:23;;;;;;;1999.90;999.90;;;;;;;11.12;100.00;94385.41;5107063;28;20205;-61
2023/05/14 07:06:49;;;;;;;1999.90;999.90;;;;;;;11.43;100.00;94383.75;5107033;28;20207;-62
2023/05/14 07:09:15;;;;;;;1999.90;999.90;;;;;;;11.44;100.00;94386.06;5107751;28;20195;-62
2023/05/14 07:11:40;;;;;;;1999.90;999.90;;;;;;;11.62;100.00;94396.53;5106959;28;20221;-61
2023/05/14 07:14:05;;;;;;;1999.90;999.90;;;;;;;11.79;100.00;94425.34;5107242;28;20208;-62
2023/05/14 07:16:31;;;;;;;1999.90;999.90;;;;;;;11.89;100.00;94466.09;5106838;28;20218;-61
2023/05/14 07:18:56;;;;;;;1999.90;999.90;;;;;;;12.10;100.00;94492.06;5107246;28;20173;-62
2023/05/14 07:21:21;;;;;;;1999.90;999.90;;;;;;;11.98;100.00;94544.81;5106487;28;20224;-61
2023/05/14 07:23:47;;;;;;;1999.90;999.90;;;;;;;12.16;100.00;94559.50;5106767;28;20179;-63
2023/05/14 07:26:13;;;;;;;1999.90;999.90;;;;;;;12.17;100.00;94595.88;5106729;28;20177;-63
2023/05/14 07:28:38;;;;;;;1999.90;999.90;;;;;;;12.19;100.00;94626.31;5106624;28;20176;-61
2023/05/14 07:31:07;;;;;;;1999.90;999.90;;;;;;;12.21;100.00;94645.81;5106629;28;20183;-62
2023/05/14 07:33:33;;;;;;;1999.90;999.90;;;;;;;12.29;100.00;94669.06;5106935;28;20207;-63
2023/05/14 07:35:58;;;;;;;1999.90;999.90;;;;;;;12.20;100.00;94697.06;5106990;28;20240;-63
2023/05/14 07:38:24;;;;;;;1999.90;999.90;;;;;;;12.01;100.00;94716.31;5106890;28;20173;-62
2023/05/14 07:40:49;;;;;;;1999.90;999.90;;;;;;;11.96;100.00;94723.09;5106301;28;20172;-63
2023/05/14 07:43:14;;;;;;;1999.90;999.90;;;;;;;12.21;100.00;94720.47;5106362;28;20173;-63
2023/05/14 07:45:40;;;;;;;1999.90;999.90;;;;;;;12.25;100.00;94725.88;5106261;28;20238;-62
2023/05/14 07:48:05;;;;;;;1999.90;999.90;;;;;;;12.21;100.00;94747.84;5106259;28;20173;-64
2023/05/14 07:50:30;;;;;;;1999.90;999.90;;;;;;;12.55;100.00;94758.34;5106193;28;20185;-62
2023/05/14 07:52:56;;;;;;;1999.90;999.90;;;;;;;12.66;100.00;94775.28;5106337;28;20216;-62
2023/05/14 07:55:22;;;;;;;1999.90;999.90;;;;;;;13.04;100.00;94795.44;5105680;28;20172;-62
2023/05/14 07:57:47;;;;;;;1999.90;999.90;;;;;;;13.29;100.00;94831.13;5106457;28;20173;-64
2023/05/14 08:00:13;;;;;;;1999.90;999.90;;;;;;;13.51;100.00;94862.25;5106195;28;20173;-62
2023/05/14 08:02:38;;;;;;;1999.90;999.90;;;;;;;13.10;100.00;94908.81;5106477;28;20180;-62
2023/05/14 08:05:04;;;;;;;1999.90;999.90;;;;;;;13.12;100.00;94925.63;5106117;28;20203;-62
2023/05/14 08:07:29;;;;;;;1999.90;999.90;;;;;;;13.17;100.00;94925.09;5105908;28;20241;-61
2023/05/14 08:09:55;;;;;;;1999.90;999.90;;;;;;;12.76;100.00;94941.38;5105740;28;20199;-61
2023/05/14 08:12:20;;;;;;;1999.90;999.90;;;;;;;12.75;100.00;94937.09;5105720;28;20183;-63
2023/05/14 08:14:46;;;;;;;1999.90;999.90;;;;;;;12.64;100.00;94933.84;5106133;28;20204;-62
2023/05/14 08:17:11;;;;;;;1999.90;999.90;;;;;;;12.46;100.00;94936.22;5105644;28;20173;-63
2023/05/14 08:19:37;;;;;;;1999.90;999.90;;;;;;;12.66;100.00;94934.16;5105449;28;20177;-65
2023/05/14 08:22:02;;;;;;;1999.90;999.90;;;;;;;12.41;100.00;94933.97;5105432;28;20199;-62
2023/05/14 08:24:28;;;;;;;1999.90;999.90;;;;;;;12.48;100.00;94929.09;5105538;28;20183;-64
2023/05/14 08:26:54;;;;;;;1999.90;999.90;;;;;;;12.44;100.00;94922.94;5105408;28;20226;-63
2023/05/14 08:29:19;;;;;;;1999.90;999.90;;;;;;;12.59;100.00;94910.44;5105865;28;20172;-64
2023/05/14 08:31:44;;;;;;;1999.90;999.90;;;;;;;12.31;100.00;94913.09;5106211;28;20192;-62
2023/05/14 08:34:10;;;;;;;1999.90;999.90;;;;;;;12.51;100.00;94902.81;5105871;28;20291;-62
2023/05/14 08:36:35;;;;;;;1999.90;999.90;;;;;;;12.89;100.00;94898.34;5105298;28;20173;-62
2023/05/14 08:39:00;;;;;;;1999.90;999.90;;;;;;;12.88;100.00;94902.31;5105460;28;20173;-62
2023/05/14 08:41:26;;;;;;;1999.90;999.90;;;;;;;12.50;100.00;94920.47;5105677;28;20177;-62
2023/05/14 08:44:10;;;;;;;1999.90;999.90;;;;;;;12.91;100.00;94906.94;5105073;28;20549;-63
2023/05/14 08:46:37;;;;;;;1999.90;999.90;;;;;;;12.79;100.00;94918.59;5105041;28;20176;-62
2023/05/14 08:49:39;;;;;;;1999.90;999.90;;;;;;;12.79;100.00;94915.84;5105601;28;20202;-62
2023/05/14 08:52:05;;;;;;;1999.90;999.90;;;;;;;12.89;100.00;94909.31;5102049;28;20244;-62
2023/05/14 08:54:31;;;;;;;1999.90;999.90;;;;;;;12.68;100.00;94916.09;5104862;28;20289;-62
2023/05/14 08:56:58;;;;;;;1999.90;999.90;;;;;;;12.42;100.00;94914.38;5104879;28;20465;-62
2023/05/14 08:59:23;;;;;;;1999.90;999.90;;;;;;;12.41;100.00;94901.88;5104930;28;20200;-61
2023/05/14 09:01:52;;;;;;;1999.90;999.90;;;;;;;12.27;100.00;94882.25;5105033;28;20183;-60
2023/05/14 09:04:23;;;;;;;1999.90;999.90;;;;;;;12.28;100.00;94859.19;5104656;28;20177;-61
2023/05/14 09:06:52;;;;;;;1999.90;999.90;;;;;;;12.54;100.00;94855.41;5104747;28;20184;-62
2023/05/14 09:09:18;;;;;;;1999.90;999.90;;;;;;;12.83;100.00;94850.75;5104646;28;20187;-61
2023/05/14 09:11:47;;;;;;;1999.90;999.90;;;;;;;12.86;100.00;94871.84;5104681;28;20243;-61
2023/05/14 09:14:12;;;;;;;1999.90;999.90;;;;;;;12.73;100.00;94895.63;5104368;28;20204;-61
2023/05/14 09:16:41;;;;;;;1999.90;999.90;;;;;;;12.54;100.00;94888.28;5104874;28;20286;-61
2023/05/14 09:19:06;;;;;;;1999.90;999.90;;;;;;;12.59;100.00;94885.00;5104488;28;20207;-61
2023/05/14 09:21:33;;;;;;;1999.90;999.90;;;;;;;12.70;100.00;94880.06;5104160;28;20220;-62
2023/05/14 09:23:59;;;;;;;1999.90;999.90;;;;;;;12.63;100.00;94875.53;5104396;28;20197;-61
2023/05/14 09:26:25;;;;;;;1999.90;999.90;;;;;;;12.80;100.00;94876.28;5104466;28;20204;-60
2023/05/14 09:28:59;;;;;;;1999.90;999.90;;;;;;;12.93;100.00;94896.31;5105190;28;20227;-62
2023/05/14 09:31:25;;;;;;;1999.90;999.90;;;;;;;12.88;100.00;94905.03;5104873;28;20169;-62
2023/05/14 09:33:51;;;;;;;1999.90;999.90;;;;;;;13.21;100.00;94914.78;5104232;28;20233;-63
2023/05/14 09:36:17;;;;;;;1999.90;999.90;;;;;;;13.29;100.00;94927.13;5104265;28;20198;-63
2023/05/14 09:38:42;;;;;;;1999.90;999.90;;;;;;;13.28;100.00;94944.78;5103849;28;20214;-62
2023/05/14 09:41:08;;;;;;;1999.90;999.90;;;;;;;13.16;100.00;94950.97;5104177;28;20181;-62
2023/05/14 09:43:33;;;;;;;1999.90;999.90;;;;;;;12.90;100.00;94958.22;5104467;28;20172;-65
2023/05/14 09:45:58;;;;;;;1999.90;999.90;;;;;;;12.76;100.00;94952.31;5103980;28;20216;-62
2023/05/14 09:48:25;;;;;;;1999.90;999.90;;;;;;;12.78;100.00;94947.16;5104108;28;20240;-61
2023/05/14 09:50:51;;;;;;;1999.90;999.90;;;;;;;12.71;100.00;94944.59;5103952;28;20168;-62
2023/05/14 09:53:17;;;;;;;1999.90;999.90;;;;;;;12.53;100.00;94930.56;5103977;28;20196;-62
2023/05/14 09:55:43;;;;;;;1999.90;999.90;;;;;;;12.31;100.00;94927.53;5103996;28;20169;-62
2023/05/14 09:58:09;;;;;;;1999.90;999.90;;;;;;;12.35;100.00;94922.75;5104443;28;20509;-62
2023/05/14 10:00:34;;;;;;;1999.90;999.90;;;;;;;12.30;100.00;94903.31;5104255;28;20180;-62
2023/05/14 10:03:06;;;;;;;1999.90;999.90;;;;;;;12.27;100.00;94912.38;5104513;28;20191;-62
2023/05/14 10:05:36;;;;;;;1999.90;999.90;;;;;;;12.43;100.00;94915.16;5103923;28;20504;-62
2023/05/14 10:08:11;;;;;;;1999.90;999.90;;;;;;;12.47;100.00;94915.84;5104302;28;20173;-62
2023/05/14 10:10:37;;;;;;;1999.90;999.90;;;;;;;12.52;100.00;94934.47;5104185;28;20172;-62
2023/05/14 10:13:06;;;;;;;1999.90;999.90;;;;;;;12.81;100.00;94936.13;5104087;28;20207;-62
2023/05/14 10:15:51;;;;;;;1999.90;999.90;;;;;;;12.66;100.00;94947.84;5103589;28;20176;-62
2023/05/14 10:18:21;;;;;;;1999.90;999.90;;;;;;;12.42;100.00;94941.75;5103752;28;20544;-62
2023/05/14 10:21:03;;;;;;;1999.90;999.90;;;;;;;12.51;100.00;94938.44;5103836;28;20224;-62
2023/05/14 10:23:29;;;;;;;1999.90;999.90;;;;;;;12.81;100.00;94946.31;5104213;28;20193;-62
2023/05/14 10:25:56;;;;;;;1999.90;999.90;;;;;;;12.95;100.00;94951.47;5104068;28;20176;-62
2023/05/14 10:28:22;;;;;;;1999.90;999.90;;;;;;;12.94;100.00;94955.41;5103867;28;20474;-62
2023/05/14 10:30:48;;;;;;;1999.90;999.90;;;;;;;12.86;100.00;94945.81;5104084;28;20176;-62
2023/05/14 10:33:15;;;;;;;1999.90;999.90;;;;;;;12.78;100.00;94949.91;5103480;28;20515;-62
2023/05/14 10:36:01;;;;;;;1999.90;999.90;;;;;;;12.60;100.00;94952.28;5103617;28;20182;-62
2023/05/14 10:38:34;;;;;;;1999.90;999.90;;;;;;;12.72;100.00;94943.41;5104057;28;20242;-62
2023/05/14 10:41:09;;;;;;;1999.90;999.90;;;;;;;12.59;100.00;94939.81;5104107;28;20181;-62
2023/05/14 10:43:39;;;;;;;1999.90;999.90;;;;;;;12.46;100.00;94936.22;5104117;28;20235;-62